Aviation Digital Data Service (ADDS)

Output produced by METARs form (1800 UTC 24 October 2014)
found at http://aviationweather.gov/adds/metars/
 
KMPV 241738Z 2418/2518 33008KT P6SM OVC010 
     TEMPO 2418/2422 OVC008 
     FM242200 33005KT P6SM OVC015 
     FM250000 VRB03KT P6SM OVC025 
     FM250300 VRB03KT P6SM BKN050 BKN100 
     FM250700 00000KT 1/4SM FG VV001 
     FM251400 30004KT P6SM SCT200